Terminal Aerodrome Forecast
Issued by NWS

Home | Current Version | Previous Version | Text Only | Print | Product List | Glossary On
Versions: 1 2 3 4 5 6 7 8 9 10 11 12 13 14
000
FTUS45 KGJT 182328
TAFMTJ
TAF
KMTJ 182328Z 1900/1924 25009KT P6SM SCT100 BKN250
      TEMPO 1900/1902 23012G22KT
     FM190200 15008KT P6SM BKN100
     FM190800 17010KT P6SM OVC100
     FM191100 19006KT P6SM VCSH OVC060
     FM191800 35007KT P6SM VCSH OVC060=

USA.gov is the U.S. government's official web portal to all federal, state and local government web resources and services.